createdAt,value
2017-04-28T00:00:32.031Z,0
2017-04-28T00:01:12.663Z,0
2017-04-28T00:01:53.262Z,0
2017-04-28T00:02:33.843Z,0
2017-04-28T00:03:14.456Z,0
2017-04-28T00:03:55.016Z,0
2017-04-28T00:04:35.649Z,0
2017-04-28T00:05:16.205Z,0
2017-04-28T00:05:56.809Z,0
2017-04-28T00:06:37.387Z,0
2017-04-28T00:07:24.497Z,0
2017-04-28T00:08:05.117Z,0
2017-04-28T00:08:45.681Z,0
2017-04-28T00:09:26.297Z,0
2017-04-28T00:10:06.883Z,0
2017-04-28T00:10:47.506Z,0
2017-04-28T00:11:28.095Z,0
2017-04-28T00:12:08.742Z,0
2017-04-28T00:12:49.321Z,0
2017-04-28T00:13:29.910Z,0
2017-04-28T00:14:10.526Z,0
2017-04-28T00:14:51.113Z,0
2017-04-28T00:15:31.731Z,0
2017-04-28T00:16:12.299Z,0
2017-04-28T00:16:52.892Z,0
2017-04-28T00:17:33.472Z,0
2017-04-28T00:18:14.043Z,0
2017-04-28T00:18:54.620Z,0
2017-04-28T00:19:35.193Z,0
2017-04-28T00:20:15.766Z,0
2017-04-28T00:20:56.375Z,0
2017-04-28T00:21:36.995Z,0
2017-04-28T00:22:17.582Z,0
2017-04-28T00:22:58.182Z,0
2017-04-28T00:23:38.748Z,0
2017-04-28T00:24:19.349Z,0
2017-04-28T00:24:59.978Z,0
2017-04-28T00:25:40.548Z,0
2017-04-28T00:26:21.154Z,0
2017-04-28T00:27:01.731Z,0
2017-04-28T00:27:42.311Z,0
2017-04-28T00:28:22.897Z,0
2017-04-28T00:29:03.522Z,0
2017-04-28T00:29:44.103Z,0
2017-04-28T00:30:24.691Z,0
2017-04-28T00:31:05.282Z,0
2017-04-28T00:31:45.881Z,0
2017-04-28T00:32:26.469Z,0
2017-04-28T00:33:07.118Z,0
2017-04-28T00:33:52.919Z,0
2017-04-28T00:34:33.511Z,0
2017-04-28T00:35:14.098Z,0
2017-04-28T00:35:54.696Z,0
2017-04-28T00:36:35.306Z,0
2017-04-28T00:37:15.956Z,0
2017-04-28T00:37:56.575Z,0
2017-04-28T00:38:37.157Z,0
2017-04-28T00:39:17.746Z,0
2017-04-28T00:39:58.369Z,0
2017-04-28T00:40:38.978Z,0
2017-04-28T00:41:19.603Z,0
2017-04-28T00:42:00.173Z,0
2017-04-28T00:42:40.750Z,0
2017-04-28T00:43:21.322Z,0
2017-04-28T00:44:01.901Z,0
2017-04-28T00:44:42.504Z,0
2017-04-28T00:45:23.084Z,0
2017-04-28T00:46:03.649Z,0
2017-04-28T00:46:44.249Z,0
2017-04-28T00:47:24.902Z,0
2017-04-28T00:48:05.494Z,0
2017-04-28T00:48:46.051Z,0
2017-04-28T00:49:26.620Z,0
2017-04-28T00:50:07.211Z,0
2017-04-28T00:50:47.787Z,0
2017-04-28T00:51:28.372Z,0
2017-04-28T00:52:08.963Z,0
2017-04-28T00:52:49.549Z,0
2017-04-28T00:53:30.113Z,0
2017-04-28T00:54:10.686Z,0
2017-04-28T00:54:51.299Z,0
2017-04-28T00:55:31.876Z,0
2017-04-28T00:56:12.445Z,0
2017-04-28T00:56:53.045Z,0
2017-04-28T00:57:33.602Z,0
2017-04-28T00:58:14.175Z,0
2017-04-28T00:58:54.773Z,0
2017-04-28T00:59:35.327Z,0
2017-04-28T01:00:15.940Z,0
2017-04-28T01:00:56.512Z,0
2017-04-28T01:01:37.092Z,0
2017-04-28T01:02:17.686Z,0
2017-04-28T01:02:58.283Z,0
2017-04-28T01:03:38.875Z,0
2017-04-28T01:04:19.444Z,0
2017-04-28T01:05:00.017Z,0
2017-04-28T01:05:40.611Z,0
2017-04-28T01:06:21.208Z,0
2017-04-28T01:07:01.774Z,0
2017-04-28T01:07:42.373Z,0
2017-04-28T01:08:22.967Z,0
2017-04-28T01:09:03.582Z,0
2017-04-28T01:09:44.157Z,0
2017-04-28T01:10:24.746Z,0
2017-04-28T01:11:05.348Z,0
2017-04-28T01:11:45.955Z,0
2017-04-28T01:12:26.577Z,0
2017-04-28T01:13:07.195Z,0
2017-04-28T01:13:47.796Z,0
2017-04-28T01:14:28.389Z,0
2017-04-28T01:15:08.995Z,0
2017-04-28T01:15:49.607Z,0
2017-04-28T01:16:30.194Z,0
2017-04-28T01:17:10.787Z,0
2017-04-28T01:17:51.391Z,0
2017-04-28T01:18:32.051Z,0
2017-04-28T01:19:12.636Z,0
2017-04-28T01:19:53.252Z,0
2017-04-28T01:20:33.875Z,0
2017-04-28T01:21:14.477Z,0
2017-04-28T01:21:55.097Z,0
2017-04-28T01:22:35.662Z,0
2017-04-28T01:23:16.279Z,0
2017-04-28T01:23:56.926Z,0
2017-04-28T01:24:37.487Z,0
2017-04-28T01:25:18.074Z,0
2017-04-28T01:25:58.701Z,0
2017-04-28T01:26:39.247Z,0
2017-04-28T01:27:19.822Z,0
2017-04-28T01:28:00.400Z,0
2017-04-28T01:28:40.999Z,0
2017-04-28T01:29:21.601Z,0
2017-04-28T01:30:02.197Z,0
2017-04-28T01:30:42.772Z,0
2017-04-28T01:31:23.414Z,0
2017-04-28T01:32:03.999Z,0
2017-04-28T01:32:44.581Z,0
2017-04-28T01:33:25.141Z,0
2017-04-28T01:34:05.755Z,0
2017-04-28T01:34:46.366Z,0
2017-04-28T01:35:26.941Z,0
2017-04-28T01:36:07.518Z,0
2017-04-28T01:36:48.116Z,0
2017-04-28T01:37:28.699Z,0
2017-04-28T01:38:09.284Z,0
2017-04-28T01:38:49.861Z,0
2017-04-28T01:39:30.453Z,0
2017-04-28T01:40:11.026Z,0
2017-04-28T01:40:51.616Z,0
2017-04-28T01:41:32.199Z,0
2017-04-28T01:42:12.760Z,0
2017-04-28T01:42:53.343Z,0
2017-04-28T01:43:33.938Z,0
2017-04-28T01:44:14.513Z,0
2017-04-28T01:44:55.077Z,0
2017-04-28T01:45:35.648Z,0
2017-04-28T01:46:16.242Z,0
2017-04-28T01:46:56.858Z,0
2017-04-28T01:47:37.467Z,0
2017-04-28T01:48:18.041Z,0
2017-04-28T01:48:58.646Z,0
2017-04-28T01:49:39.231Z,0
2017-04-28T01:50:19.843Z,0
2017-04-28T01:51:00.410Z,0
2017-04-28T01:51:41.016Z,0
2017-04-28T01:52:21.612Z,0
2017-04-28T01:53:02.216Z,0
2017-04-28T01:53:42.800Z,0
2017-04-28T01:54:23.414Z,0
2017-04-28T01:55:03.985Z,0
2017-04-28T01:55:44.572Z,0
2017-04-28T01:56:25.164Z,0
2017-04-28T01:57:05.744Z,0
2017-04-28T01:57:46.318Z,0
2017-04-28T01:58:26.885Z,0
2017-04-28T01:59:07.466Z,0
2017-04-28T01:59:48.027Z,0
2017-04-28T02:00:28.705Z,0
2017-04-28T02:01:09.285Z,0
2017-04-28T02:01:49.903Z,0
2017-04-28T02:02:30.497Z,0
2017-04-28T02:03:11.096Z,0
2017-04-28T02:03:51.673Z,0
2017-04-28T02:04:32.274Z,0
2017-04-28T02:05:12.862Z,0
2017-04-28T02:05:53.443Z,0
2017-04-28T02:06:34.047Z,0
2017-04-28T02:07:14.635Z,0
2017-04-28T02:07:55.255Z,0
2017-04-28T02:08:35.857Z,0
2017-04-28T02:09:16.447Z,0
2017-04-28T02:09:57.007Z,0
2017-04-28T02:10:37.590Z,0
2017-04-28T02:11:18.179Z,0
2017-04-28T02:11:58.773Z,0
2017-04-28T02:12:39.400Z,0
2017-04-28T02:13:19.970Z,0
2017-04-28T02:14:00.572Z,0
2017-04-28T02:14:41.159Z,0
2017-04-28T02:15:21.728Z,0
2017-04-28T02:16:02.319Z,0
2017-04-28T02:16:42.886Z,0
2017-04-28T02:17:23.482Z,0
2017-04-28T02:18:04.056Z,0
2017-04-28T02:18:44.639Z,0
2017-04-28T02:19:25.238Z,0
2017-04-28T02:20:05.822Z,0
2017-04-28T02:20:46.442Z,0
2017-04-28T02:21:27.022Z,0
2017-04-28T02:22:07.677Z,0
2017-04-28T02:22:48.250Z,0
2017-04-28T02:23:28.840Z,0
2017-04-28T02:24:09.411Z,0
2017-04-28T02:24:49.980Z,0
2017-04-28T02:25:30.590Z,0
2017-04-28T02:26:11.153Z,0
2017-04-28T02:26:51.742Z,0
2017-04-28T02:27:32.332Z,0
2017-04-28T02:28:12.910Z,0
2017-04-28T02:28:53.491Z,0
2017-04-28T02:29:34.146Z,0
2017-04-28T02:30:14.674Z,0
2017-04-28T02:30:55.256Z,0
2017-04-28T02:31:35.857Z,0
2017-04-28T02:32:16.445Z,0
2017-04-28T02:32:57.047Z,0
2017-04-28T02:33:37.624Z,0
2017-04-28T02:34:18.252Z,0
2017-04-28T02:34:58.828Z,0
2017-04-28T02:35:39.424Z,0
2017-04-28T02:36:19.990Z,0
2017-04-28T02:37:00.560Z,0
2017-04-28T02:37:41.170Z,0
2017-04-28T02:38:21.725Z,0
2017-04-28T02:39:02.322Z,0
2017-04-28T02:39:42.932Z,0
2017-04-28T02:40:23.501Z,0
2017-04-28T02:41:04.114Z,0
2017-04-28T02:41:44.693Z,0
2017-04-28T02:42:25.289Z,0
2017-04-28T02:43:05.871Z,0
2017-04-28T02:43:46.435Z,0
2017-04-28T02:44:27.035Z,0
2017-04-28T02:45:07.620Z,0
2017-04-28T02:45:48.203Z,0
2017-04-28T02:46:28.779Z,0
2017-04-28T02:47:09.343Z,0
2017-04-28T02:47:49.973Z,0
2017-04-28T02:48:30.550Z,0
2017-04-28T02:49:11.123Z,0
2017-04-28T02:49:51.702Z,0
2017-04-28T02:50:32.300Z,0
2017-04-28T02:51:12.887Z,0
2017-04-28T02:51:53.472Z,0
2017-04-28T02:52:34.047Z,0
2017-04-28T02:53:14.651Z,0
2017-04-28T02:53:55.274Z,0
2017-04-28T02:54:35.961Z,0
2017-04-28T02:55:16.627Z,0
2017-04-28T02:55:57.368Z,0
2017-04-28T02:56:37.969Z,0
2017-04-28T02:57:18.815Z,0
2017-04-28T02:57:59.505Z,0
2017-04-28T02:58:40.146Z,0
2017-04-28T02:59:20.765Z,0
2017-04-28T03:00:01.378Z,0
2017-04-28T03:00:41.965Z,0
2017-04-28T03:01:22.567Z,0
2017-04-28T03:02:03.175Z,0
2017-04-28T03:02:43.940Z,0
2017-04-28T03:03:25.048Z,0
2017-04-28T03:04:05.854Z,0
2017-04-28T03:04:46.485Z,0
2017-04-28T03:05:27.100Z,0
2017-04-28T03:06:07.685Z,0
2017-04-28T03:06:48.277Z,0
2017-04-28T03:07:28.853Z,0
2017-04-28T03:08:09.429Z,0
2017-04-28T03:08:50.008Z,0
2017-04-28T03:09:30.647Z,0
2017-04-28T03:10:11.185Z,4
2017-04-28T03:10:51.781Z,4
2017-04-28T03:11:32.362Z,4
2017-04-28T03:12:12.952Z,4
2017-04-28T03:12:53.550Z,0
2017-04-28T03:13:34.137Z,0
2017-04-28T03:14:14.699Z,4
2017-04-28T03:14:55.298Z,4
2017-04-28T03:15:35.911Z,4
2017-04-28T03:16:16.448Z,4
2017-04-28T03:16:57.097Z,4
2017-04-28T03:17:37.631Z,8
2017-04-28T03:18:18.228Z,8
2017-04-28T03:18:58.800Z,8
2017-04-28T03:19:39.375Z,8
2017-04-28T03:20:19.946Z,8
2017-04-28T03:21:00.546Z,12
2017-04-28T03:21:41.142Z,8
2017-04-28T03:22:21.766Z,12
2017-04-28T03:23:02.336Z,12
2017-04-28T03:23:42.935Z,12
2017-04-28T03:24:23.540Z,16
2017-04-28T03:25:04.133Z,16
2017-04-28T03:25:44.974Z,16
2017-04-28T03:26:25.988Z,20
2017-04-28T03:27:06.781Z,24
2017-04-28T03:27:47.381Z,24
2017-04-28T03:28:28.099Z,28
2017-04-28T03:29:08.722Z,28
2017-04-28T03:29:49.300Z,32
2017-04-28T03:30:29.888Z,32
2017-04-28T03:31:10.458Z,36
2017-04-28T03:31:51.050Z,36
2017-04-28T03:32:31.646Z,40
2017-04-28T03:33:12.206Z,44
2017-04-28T03:33:52.810Z,48
2017-04-28T03:34:33.385Z,48
2017-04-28T03:35:13.998Z,52
2017-04-28T03:35:54.593Z,60
2017-04-28T03:36:35.157Z,60
2017-04-28T03:37:15.728Z,64
2017-04-28T03:37:56.325Z,68
2017-04-28T03:38:36.904Z,72
2017-04-28T03:39:17.503Z,76
2017-04-28T03:39:58.080Z,80
2017-04-28T03:40:38.651Z,88
2017-04-28T03:41:19.239Z,92
2017-04-28T03:41:59.811Z,96
2017-04-28T03:42:40.382Z,100
2017-04-28T03:43:20.981Z,104
2017-04-28T03:44:01.613Z,112
2017-04-28T03:44:42.177Z,116
2017-04-28T03:45:22.771Z,120
2017-04-28T03:46:03.417Z,128
2017-04-28T03:46:44.005Z,132
2017-04-28T03:47:24.659Z,140
2017-04-28T03:48:05.247Z,144
2017-04-28T03:48:45.820Z,152
2017-04-28T03:49:26.465Z,156
2017-04-28T03:50:07.016Z,168
2017-04-28T03:50:47.603Z,172
2017-04-28T03:51:28.187Z,180
2017-04-28T03:52:08.774Z,184
2017-04-28T03:52:49.355Z,196
2017-04-28T03:53:30.009Z,200
2017-04-28T03:54:10.654Z,208
2017-04-28T03:54:51.270Z,216
2017-04-28T03:55:31.839Z,224
2017-04-28T03:56:12.427Z,228
2017-04-28T03:56:53.025Z,236
2017-04-28T03:57:33.617Z,244
2017-04-28T03:58:14.192Z,252
2017-04-28T03:58:54.799Z,260
2017-04-28T04:01:28.916Z,292
2017-04-28T04:02:09.515Z,304
2017-04-28T04:02:50.104Z,312
2017-04-28T04:03:30.716Z,320
2017-04-28T04:04:14.030Z,332
2017-04-28T04:04:54.603Z,344
2017-04-28T04:05:35.196Z,356
2017-04-28T04:06:15.791Z,364
2017-04-28T04:06:56.390Z,376
2017-04-28T04:07:36.955Z,388
2017-04-28T04:08:17.532Z,400
2017-04-28T04:08:58.148Z,408
2017-04-28T04:09:38.721Z,420
2017-04-28T04:10:19.301Z,436
2017-04-28T04:10:59.915Z,444
2017-04-28T04:15:06.951Z,556
2017-04-28T04:15:47.517Z,572
2017-04-28T04:16:28.083Z,588
2017-04-28T04:17:08.658Z,608
2017-04-28T04:17:49.271Z,624
2017-04-28T04:18:29.852Z,644
2017-04-28T04:19:10.498Z,664
2017-04-28T04:19:51.080Z,684
2017-04-28T04:20:31.682Z,696
2017-04-28T04:21:12.257Z,700
2017-04-28T04:21:52.849Z,708
2017-04-28T04:22:33.440Z,720
2017-04-28T04:23:14.030Z,740
2017-04-28T04:23:54.656Z,752
2017-04-28T04:24:35.223Z,776
2017-04-28T04:25:15.831Z,796
2017-04-28T04:25:56.435Z,804
2017-04-28T04:26:36.994Z,828
2017-04-28T04:27:17.590Z,864
2017-04-28T04:27:58.180Z,916
2017-04-28T04:28:38.745Z,972
2017-04-28T04:29:19.312Z,1040
2017-04-28T04:29:59.884Z,1100
2017-04-28T04:30:40.480Z,1128
2017-04-28T04:31:21.513Z,1164
2017-04-28T04:32:02.149Z,1172
2017-04-28T04:32:42.728Z,1180
2017-04-28T04:33:23.303Z,1180
2017-04-28T04:34:03.876Z,1176
2017-04-28T04:34:44.496Z,1208
2017-04-28T04:35:25.075Z,1300
2017-04-28T04:36:05.711Z,1388
2017-04-28T04:36:46.280Z,1444
2017-04-28T04:37:27.011Z,1456
2017-04-28T04:38:07.630Z,1468
2017-04-28T04:38:48.174Z,1452
2017-04-28T04:39:28.852Z,1476
2017-04-28T04:40:09.407Z,1476
2017-04-28T04:40:50.060Z,1480
2017-04-28T04:41:30.656Z,1568
2017-04-28T04:42:11.305Z,1724
2017-04-28T04:42:51.889Z,1828
2017-04-28T04:43:32.521Z,1880
2017-04-28T04:44:13.137Z,1928
2017-04-28T04:44:53.718Z,1960
2017-04-28T04:45:34.301Z,2004
2017-04-28T04:46:14.928Z,2032
2017-04-28T04:46:55.537Z,2080
2017-04-28T04:47:36.131Z,2140
2017-04-28T04:48:16.715Z,2212
2017-04-28T04:48:57.431Z,2280
2017-04-28T04:49:37.984Z,2340
2017-04-28T04:50:18.555Z,2344
2017-04-28T04:50:59.133Z,2368
2017-04-28T04:51:39.749Z,2404
2017-04-28T04:52:20.347Z,2456
2017-04-28T04:53:00.916Z,2500
2017-04-28T04:53:41.483Z,2524
2017-04-28T04:54:22.084Z,2560
2017-04-28T04:55:02.709Z,2616
2017-04-28T04:55:43.288Z,2704
2017-04-28T04:56:23.932Z,2772
2017-04-28T04:57:04.513Z,2820
2017-04-28T04:57:45.094Z,2856
2017-04-28T04:58:25.690Z,2892
2017-04-28T05:00:43.875Z,3052
2017-04-28T05:01:24.492Z,3092
2017-04-28T05:02:05.146Z,3144
2017-04-28T05:02:45.743Z,3192
2017-04-28T05:03:26.311Z,3244
2017-04-28T05:04:06.917Z,3300
2017-04-28T05:04:47.514Z,3352
2017-04-28T05:05:28.221Z,3416
2017-04-28T05:06:08.780Z,3472
2017-04-28T05:06:49.381Z,3532
2017-04-28T05:07:29.941Z,3588
2017-04-28T05:08:10.516Z,3644
2017-04-28T05:08:51.097Z,3692
2017-04-28T05:09:31.685Z,3740
2017-04-28T05:10:12.282Z,3788
2017-04-28T05:10:52.867Z,3828
2017-04-28T05:11:33.460Z,3868
2017-04-28T05:12:14.050Z,3904
2017-04-28T05:12:54.674Z,3936
2017-04-28T05:13:35.253Z,3972
2017-04-28T05:14:15.825Z,4000
2017-04-28T05:14:56.408Z,4024
2017-04-28T05:15:37.045Z,4044
2017-04-28T05:16:17.618Z,4056
2017-04-28T05:16:58.209Z,4072
2017-04-28T05:17:38.866Z,4088
2017-04-28T05:18:19.430Z,4104
2017-04-28T05:19:00.039Z,4116
2017-04-28T05:19:40.606Z,4132
2017-04-28T05:20:21.193Z,4148
2017-04-28T05:21:01.777Z,4160
2017-04-28T05:21:42.381Z,4180
2017-04-28T05:22:22.993Z,4216
2017-04-28T05:23:03.562Z,4264
2017-04-28T05:23:44.171Z,4312
2017-04-28T05:24:24.762Z,4344
2017-04-28T05:25:05.399Z,4384
2017-04-28T05:25:46.008Z,4420
2017-04-28T05:26:26.595Z,4460
2017-04-28T05:27:07.220Z,4500
2017-04-28T05:27:47.782Z,4540
2017-04-28T05:28:28.363Z,4580
2017-04-28T05:29:08.969Z,4624
2017-04-28T05:29:49.591Z,4664
2017-04-28T05:30:30.174Z,4708
2017-04-28T05:31:10.790Z,4756
2017-04-28T05:31:51.368Z,4792
2017-04-28T05:32:31.959Z,4836
2017-04-28T05:33:12.616Z,4880
2017-04-28T05:33:53.181Z,4928
2017-04-28T05:34:33.748Z,4968
2017-04-28T05:35:14.348Z,5008
2017-04-28T05:35:54.953Z,5056
2017-04-28T05:36:35.524Z,5100
2017-04-28T05:37:16.111Z,5148
2017-04-28T05:37:56.699Z,5196
2017-04-28T05:38:37.308Z,5244
2017-04-28T05:39:17.923Z,5296
2017-04-28T05:41:30.938Z,5464
2017-04-28T05:42:11.508Z,5508
2017-04-28T05:42:52.123Z,5564
2017-04-28T05:43:32.698Z,5604
2017-04-28T05:44:13.279Z,5664
2017-04-28T05:46:56.017Z,6000
2017-04-28T05:47:36.611Z,5988
2017-04-28T05:48:17.266Z,9304
2017-04-28T05:48:57.865Z,20000
2017-04-28T05:49:38.443Z,34688
2017-04-28T05:50:19.022Z,48256
2017-04-28T05:50:59.598Z,56896
2017-04-28T05:51:40.217Z,56352
2017-04-28T05:52:20.810Z,56032
2017-04-28T05:53:01.475Z,57120
2017-04-28T05:53:42.055Z,57792
2017-04-28T05:54:22.698Z,58336
2017-04-28T05:55:03.315Z,59584
2017-04-28T05:55:43.929Z,60128
2017-04-28T05:56:24.512Z,60992
2017-04-28T05:57:05.085Z,60064
2017-04-28T05:57:45.667Z,59200
2017-04-28T05:58:26.242Z,59520
2017-04-28T05:59:06.845Z,61792
2017-04-28T05:59:47.430Z,62848
2017-04-28T06:00:28.056Z,63136
2017-04-28T06:01:08.629Z,61280
2017-04-28T06:01:49.203Z,61248
2017-04-28T06:02:29.791Z,62304
2017-04-28T06:03:10.377Z,62336
2017-04-28T06:03:50.948Z,63168
2017-04-28T06:04:31.566Z,61344
2017-04-28T06:05:12.181Z,62112
2017-04-28T06:05:52.777Z,62336
2017-04-28T06:06:33.392Z,62560
2017-04-28T06:07:14.006Z,63104
2017-04-28T06:07:54.607Z,63456
2017-04-28T06:08:35.202Z,65024
2017-04-28T06:09:15.895Z,65888
2017-04-28T06:09:56.471Z,66400
2017-04-28T06:10:37.070Z,65728
2017-04-28T06:11:17.671Z,64864
2017-04-28T06:11:58.278Z,64000
2017-04-28T06:12:38.877Z,62464
2017-04-28T06:13:19.446Z,59680
2017-04-28T06:14:00.055Z,59488
2017-04-28T06:14:40.654Z,58912
2017-04-28T06:15:21.231Z,60128
2017-04-28T06:16:01.853Z,60288
2017-04-28T06:16:42.474Z,62432
2017-04-28T06:17:23.173Z,62240
2017-04-28T06:18:03.745Z,61696
2017-04-28T06:18:44.378Z,61344
2017-04-28T06:19:24.969Z,61120
2017-04-28T06:20:05.561Z,61408
2017-04-28T06:20:46.189Z,61760
2017-04-28T06:21:26.811Z,61856
2017-04-28T06:22:07.447Z,64768
2017-04-28T06:22:48.075Z,67072
2017-04-28T06:23:28.663Z,65472
2017-04-28T06:24:09.301Z,65408
2017-04-28T06:24:49.930Z,65632
2017-04-28T06:25:30.522Z,67168
2017-04-28T06:26:11.153Z,67424
2017-04-28T06:26:51.736Z,67680
2017-04-28T06:27:32.379Z,67360
2017-04-28T06:28:13.037Z,67232
2017-04-28T06:28:53.668Z,67904
2017-04-28T06:29:34.306Z,69408
2017-04-28T06:30:14.890Z,69184
2017-04-28T06:30:55.505Z,67456
2017-04-28T06:31:36.099Z,68128
2017-04-28T06:32:16.752Z,68640
2017-04-28T06:32:57.326Z,68512
2017-04-28T06:33:37.922Z,68896
2017-04-28T06:34:18.517Z,68256
2017-04-28T06:34:59.232Z,67392
2017-04-28T06:35:39.986Z,67872
2017-04-28T06:36:20.571Z,68832
2017-04-28T06:37:01.189Z,69088
2017-04-28T06:37:41.773Z,68192
2017-04-28T06:38:22.351Z,67680
2017-04-28T06:39:02.946Z,67104
2017-04-28T06:39:43.558Z,68352
2017-04-28T06:40:24.181Z,70176
2017-04-28T06:41:04.852Z,70880
2017-04-28T06:41:45.438Z,69920
2017-04-28T06:42:26.029Z,69536
2017-04-28T06:43:06.603Z,68832
2017-04-28T06:43:47.211Z,68416
2017-04-28T06:44:27.802Z,68032
2017-04-28T06:45:08.401Z,68352
2017-04-28T06:45:49.031Z,69408
2017-04-28T06:46:29.614Z,69568
2017-04-28T06:47:10.251Z,68736
2017-04-28T06:47:50.871Z,70432
2017-04-28T06:48:31.474Z,71008
2017-04-28T06:49:12.246Z,71392
2017-04-28T06:49:52.961Z,71360
2017-04-28T06:50:33.558Z,71840
2017-04-28T06:51:14.147Z,71552
2017-04-28T06:51:54.757Z,71744
2017-04-28T06:52:35.401Z,71744
2017-04-28T06:53:15.996Z,71456
2017-04-28T06:53:56.630Z,71488
2017-04-28T06:54:37.236Z,71712
2017-04-28T06:55:18.030Z,71552
2017-04-28T06:55:58.631Z,70240
2017-04-28T06:56:39.227Z,71680
2017-04-28T06:57:19.931Z,71584
2017-04-28T06:58:00.571Z,72928
2017-04-28T06:58:41.174Z,73600
2017-04-28T06:59:21.826Z,73120
2017-04-28T07:00:02.529Z,72224
2017-04-28T07:00:43.182Z,71584
2017-04-28T07:01:24.569Z,72320
2017-04-28T07:02:05.167Z,72576
2017-04-28T07:02:45.765Z,72704
2017-04-28T07:03:26.412Z,71392
2017-04-28T07:04:07.072Z,69728
2017-04-28T07:04:47.685Z,71168
2017-04-28T07:05:28.365Z,73344
2017-04-28T07:06:09.057Z,73632
2017-04-28T07:06:49.719Z,71904
2017-04-28T07:07:30.295Z,73248
2017-04-28T07:08:11.018Z,75712
2017-04-28T07:08:51.559Z,76096
2017-04-28T07:09:32.147Z,74848
2017-04-28T07:10:12.766Z,73792
2017-04-28T07:10:53.357Z,72448
2017-04-28T07:11:33.971Z,71520
2017-04-28T07:12:14.661Z,72640
2017-04-28T07:12:55.255Z,75424
2017-04-28T07:13:35.878Z,76608
2017-04-28T07:14:16.475Z,77536
2017-04-28T07:14:57.089Z,76032
2017-04-28T07:15:37.794Z,75392
2017-04-28T07:16:18.441Z,76832
2017-04-28T07:16:59.053Z,77056
2017-04-28T07:17:39.674Z,77536
2017-04-28T07:18:20.278Z,75968
2017-04-28T07:19:00.981Z,75008
2017-04-28T07:19:41.638Z,75136
2017-04-28T07:20:22.220Z,76608
2017-04-28T07:21:02.875Z,77216
2017-04-28T07:21:43.496Z,76480
2017-04-28T07:22:24.121Z,73472
2017-04-28T07:23:04.710Z,68800
2017-04-28T07:23:45.313Z,66208
2017-04-28T07:24:25.976Z,69696
2017-04-28T07:25:06.550Z,74080
2017-04-28T07:25:47.131Z,74080
2017-04-28T07:26:27.732Z,71424
2017-04-28T07:27:08.760Z,69440
2017-04-28T07:27:49.331Z,71808
2017-04-28T07:28:30.910Z,75168
2017-04-28T07:29:10.596Z,75808
2017-04-28T07:29:51.205Z,74304
2017-04-28T07:30:31.811Z,75040
2017-04-28T07:31:12.389Z,76576
2017-04-28T07:31:53.009Z,75936
2017-04-28T07:32:33.618Z,75648
2017-04-28T07:33:14.226Z,75200
2017-04-28T07:33:54.805Z,76832
2017-04-28T07:34:35.438Z,76992
2017-04-28T07:35:16.076Z,75552
2017-04-28T07:35:56.690Z,75648
2017-04-28T07:36:37.299Z,75392
2017-04-28T07:37:17.912Z,76928
2017-04-28T07:37:58.483Z,75872
2017-04-28T07:38:39.084Z,73760
2017-04-28T07:39:19.703Z,75520
2017-04-28T07:40:00.306Z,78848
2017-04-28T07:40:40.997Z,79392
2017-04-28T07:41:21.619Z,75968
2017-04-28T07:42:02.225Z,74112
2017-04-28T07:42:42.833Z,74688
2017-04-28T07:43:23.520Z,78336
2017-04-28T07:44:04.222Z,78528
2017-04-28T07:44:44.836Z,76800
2017-04-28T07:45:25.586Z,76768
2017-04-28T07:46:06.185Z,77792
2017-04-28T07:46:46.847Z,76096
2017-04-28T07:47:27.469Z,74528
2017-04-28T07:48:08.108Z,76928
2017-04-28T07:48:48.688Z,75968
2017-04-28T07:49:29.316Z,72320
2017-04-28T07:50:10.076Z,74336
2017-04-28T07:50:50.682Z,76352
2017-04-28T07:51:31.290Z,76704
2017-04-28T07:52:11.943Z,75424
2017-04-28T07:52:52.565Z,75744
2017-04-28T07:53:33.174Z,77056
2017-04-28T07:54:13.815Z,75712
2017-04-28T07:54:54.488Z,73984
2017-04-28T07:55:35.267Z,73600
2017-04-28T07:56:16.082Z,74656
2017-04-28T07:56:56.797Z,75136
2017-04-28T07:57:37.363Z,74624
2017-04-28T07:58:17.953Z,74592
2017-04-28T07:58:58.577Z,72416
2017-04-28T07:59:39.162Z,70208
2017-04-28T08:00:19.868Z,66560
2017-04-28T08:01:00.439Z,67648
2017-04-28T08:01:41.062Z,69664
2017-04-28T08:02:21.675Z,64256
2017-04-28T08:03:02.308Z,44192
2017-04-28T08:03:42.925Z,27616
2017-04-28T08:04:23.531Z,22144
2017-04-28T08:05:04.225Z,20704
2017-04-28T08:05:44.774Z,21568
2017-04-28T08:06:25.370Z,21376
2017-04-28T08:07:05.978Z,20128
2017-04-28T08:07:46.753Z,21376
2017-04-28T08:08:28.005Z,20992
2017-04-28T08:09:08.651Z,19200
2017-04-28T08:09:49.412Z,20032
2017-04-28T08:10:30.126Z,20448
2017-04-28T08:11:10.941Z,19584
2017-04-28T08:11:51.620Z,19552
2017-04-28T08:12:32.169Z,19520
2017-04-28T08:13:13.027Z,18976
2017-04-28T08:13:53.761Z,18848
2017-04-28T08:14:34.419Z,18112
2017-04-28T08:15:15.161Z,17504
2017-04-28T08:15:55.845Z,16896
2017-04-28T08:16:36.569Z,16736
2017-04-28T08:17:17.271Z,16004
2017-04-28T08:17:58.632Z,13208
2017-04-28T08:18:39.260Z,13500
2017-04-28T08:19:19.956Z,13584
2017-04-28T08:20:00.576Z,13312
2017-04-28T08:20:41.797Z,14748
2017-04-28T08:21:22.836Z,13536
2017-04-28T08:22:03.614Z,15580
2017-04-28T08:22:44.342Z,17600
2017-04-28T08:23:25.225Z,17216
2017-04-28T08:24:05.942Z,15444
2017-04-28T08:24:46.613Z,13860
2017-04-28T08:25:27.252Z,13844
2017-04-28T08:26:07.958Z,14504
2017-04-28T08:26:48.846Z,15336
2017-04-28T08:27:29.479Z,14748
2017-04-28T08:28:10.182Z,14964
2017-04-28T08:28:51.028Z,15116
2017-04-28T08:29:31.841Z,18080
2017-04-28T08:30:12.508Z,15288
2017-04-28T08:30:53.164Z,13640
2017-04-28T08:31:33.992Z,12448
2017-04-28T08:32:15.220Z,11724
2017-04-28T08:32:55.859Z,11728
2017-04-28T08:33:36.513Z,11652
2017-04-28T08:34:18.385Z,11872
2017-04-28T08:34:59.023Z,11296
2017-04-28T08:35:39.618Z,10100
2017-04-28T08:36:20.256Z,9448
2017-04-28T08:37:00.969Z,8828
2017-04-28T08:37:42.551Z,8596
2017-04-28T08:38:23.178Z,8400
2017-04-28T08:39:03.905Z,8172
2017-04-28T08:39:44.528Z,7976
2017-04-28T08:40:25.238Z,7788
2017-04-28T08:41:05.827Z,7544
2017-04-28T08:41:46.524Z,7196
2017-04-28T08:42:27.162Z,6792
2017-04-28T08:43:08.050Z,6440
2017-04-28T08:43:49.091Z,6196
2017-04-28T08:44:29.987Z,6052
2017-04-28T08:45:10.571Z,5884
2017-04-28T08:45:51.416Z,5784
2017-04-28T08:46:32.034Z,5772
2017-04-28T08:47:12.796Z,5812
2017-04-28T08:47:53.417Z,5852
2017-04-28T08:48:34.257Z,5944
2017-04-28T08:49:15.010Z,6068
2017-04-28T08:49:55.687Z,6240
2017-04-28T08:50:36.314Z,6356
2017-04-28T08:51:17.048Z,6432
2017-04-28T08:51:57.824Z,6492
2017-04-28T08:52:38.718Z,6528
2017-04-28T08:53:19.388Z,6528
2017-04-28T08:54:00.109Z,6508
2017-04-28T08:54:40.797Z,6424
2017-04-28T08:55:21.541Z,6288
2017-04-28T08:56:02.160Z,6116
2017-04-28T08:56:42.918Z,5956
2017-04-28T08:57:23.684Z,5792
2017-04-28T08:58:04.283Z,5644
2017-04-28T08:58:44.910Z,5500
2017-04-28T08:59:25.542Z,5440
2017-04-28T09:00:06.257Z,5392
2017-04-28T09:00:47.008Z,5352
2017-04-28T09:01:27.690Z,5332
2017-04-28T09:02:08.394Z,5332
2017-04-28T09:02:49.091Z,5340
2017-04-28T09:03:29.730Z,5368
2017-04-28T09:04:10.615Z,5424
2017-04-28T09:04:51.175Z,5408
2017-04-28T09:05:31.998Z,5408
2017-04-28T09:06:12.536Z,5392
2017-04-28T09:06:53.349Z,5372
2017-04-28T09:07:34.200Z,5356
2017-04-28T09:08:15.030Z,5360
2017-04-28T09:08:55.747Z,5400
2017-04-28T09:09:36.485Z,5456
2017-04-28T09:10:17.223Z,5556
2017-04-28T09:10:57.840Z,5664
2017-04-28T09:11:38.523Z,5788
2017-04-28T09:12:19.369Z,5944
2017-04-28T09:12:59.984Z,6132
2017-04-28T09:13:40.592Z,6344
2017-04-28T09:14:21.187Z,6580
2017-04-28T09:15:01.777Z,6824
2017-04-28T09:15:42.416Z,7072
2017-04-28T09:16:22.995Z,7320
2017-04-28T09:17:03.631Z,7536
2017-04-28T09:17:44.261Z,7664
2017-04-28T09:18:24.966Z,7700
2017-04-28T09:19:05.572Z,7756
2017-04-28T09:19:46.183Z,7776
2017-04-28T09:20:26.776Z,7824
2017-04-28T09:21:07.383Z,7808
2017-04-28T09:21:48.024Z,7828
2017-04-28T09:22:28.647Z,7840
2017-04-28T09:23:09.271Z,7872
2017-04-28T09:23:49.863Z,7924
2017-04-28T09:24:30.479Z,7908
2017-04-28T09:25:11.115Z,7904
2017-04-28T09:25:51.662Z,7860
2017-04-28T09:26:32.259Z,7792
2017-04-28T09:27:12.853Z,7752
2017-04-28T09:27:53.435Z,7736
2017-04-28T09:28:34.030Z,7656
2017-04-28T09:29:14.648Z,7624